sensor_id;sensor_type;location;lat;lon;timestamp;temperature;humidity
35593;DHT22;64447;52.140;5.602;2023-03-14T00:01:13;12.10;99.40
35593;DHT22;64447;52.140;5.602;2023-03-14T00:03:39;12.10;99.30
35593;DHT22;64447;52.140;5.602;2023-03-14T00:06:05;12.00;99.30
35593;DHT22;64447;52.140;5.602;2023-03-14T00:08:31;12.10;99.30
35593;DHT22;64447;52.140;5.602;2023-03-14T00:11:19;12.10;99.30
35593;DHT22;64447;52.140;5.602;2023-03-14T00:13:49;12.00;99.30
35593;DHT22;64447;52.140;5.602;2023-03-14T00:16:15;12.20;99.30
35593;DHT22;64447;52.140;5.602;2023-03-14T00:18:41;11.90;98.90
35593;DHT22;64447;52.140;5.602;2023-03-14T00:21:08;11.90;98.90
35593;DHT22;64447;52.140;5.602;2023-03-14T00:23:35;11.80;98.50
35593;DHT22;64447;52.140;5.602;2023-03-14T00:26:03;11.90;98.20
35593;DHT22;64447;52.140;5.602;2023-03-14T00:28:29;11.80;97.60
35593;DHT22;64447;52.140;5.602;2023-03-14T00:30:55;11.80;97.70
35593;DHT22;64447;52.140;5.602;2023-03-14T00:33:21;11.70;97.10
35593;DHT22;64447;52.140;5.602;2023-03-14T00:36:01;11.70;97.00
35593;DHT22;64447;52.140;5.602;2023-03-14T00:38:32;11.70;96.70
35593;DHT22;64447;52.140;5.602;2023-03-14T00:40:58;11.70;96.60
35593;DHT22;64447;52.140;5.602;2023-03-14T00:43:24;11.70;96.70
35593;DHT22;64447;52.140;5.602;2023-03-14T00:45:51;11.60;96.20
35593;DHT22;64447;52.140;5.602;2023-03-14T00:48:18;11.70;96.10
35593;DHT22;64447;52.140;5.602;2023-03-14T00:50:45;11.60;96.30
35593;DHT22;64447;52.140;5.602;2023-03-14T00:53:11;11.50;96.10
35593;DHT22;64447;52.140;5.602;2023-03-14T00:55:40;11.50;96.40
35593;DHT22;64447;52.140;5.602;2023-03-14T00:58:08;11.50;96.60
35593;DHT22;64447;52.140;5.602;2023-03-14T01:00:34;11.50;96.60
35593;DHT22;64447;52.140;5.602;2023-03-14T01:03:00;11.50;96.50
35593;DHT22;64447;52.140;5.602;2023-03-14T01:05:27;11.50;96.40
35593;DHT22;64447;52.140;5.602;2023-03-14T01:07:53;11.50;96.20
35593;DHT22;64447;52.140;5.602;2023-03-14T01:10:18;11.40;96.00
35593;DHT22;64447;52.140;5.602;2023-03-14T01:12:44;11.50;96.10
35593;DHT22;64447;52.140;5.602;2023-03-14T01:15:10;11.40;95.80
35593;DHT22;64447;52.140;5.602;2023-03-14T01:17:36;11.50;96.10
35593;DHT22;64447;52.140;5.602;2023-03-14T01:20:04;11.30;96.90
35593;DHT22;64447;52.140;5.602;2023-03-14T01:22:35;11.30;97.30
35593;DHT22;64447;52.140;5.602;2023-03-14T01:25:01;11.20;98.20
35593;DHT22;64447;52.140;5.602;2023-03-14T01:27:26;11.10;99.10
35593;DHT22;64447;52.140;5.602;2023-03-14T01:29:52;11.00;99.90
35593;DHT22;64447;52.140;5.602;2023-03-14T01:32:18;10.90;99.90
35593;DHT22;64447;52.140;5.602;2023-03-14T01:34:43;10.80;99.90
35593;DHT22;64447;52.140;5.602;2023-03-14T01:37:09;10.70;99.90
35593;DHT22;64447;52.140;5.602;2023-03-14T01:39:37;10.60;99.90
35593;DHT22;64447;52.140;5.602;2023-03-14T01:42:05;10.60;99.90
35593;DHT22;64447;52.140;5.602;2023-03-14T01:44:54;10.50;99.90
35593;DHT22;64447;52.140;5.602;2023-03-14T01:47:20;10.50;99.90
35593;DHT22;64447;52.140;5.602;2023-03-14T01:50:01;10.40;99.90
35593;DHT22;64447;52.140;5.602;2023-03-14T01:52:32;10.30;99.90
35593;DHT22;64447;52.140;5.602;2023-03-14T01:55:05;10.30;99.90
35593;DHT22;64447;52.140;5.602;2023-03-14T01:57:41;10.30;99.90
35593;DHT22;64447;52.140;5.602;2023-03-14T02:00:11;10.20;99.90
35593;DHT22;64447;52.140;5.602;2023-03-14T02:02:41;10.20;99.90
35593;DHT22;64447;52.140;5.602;2023-03-14T02:05:09;10.20;99.90
35593;DHT22;64447;52.140;5.602;2023-03-14T02:07:46;10.10;99.90
35593;DHT22;64447;52.140;5.602;2023-03-14T02:10:12;10.10;99.90
35593;DHT22;64447;52.140;5.602;2023-03-14T02:12:39;10.20;99.90
35593;DHT22;64447;52.140;5.602;2023-03-14T02:15:06;10.10;99.90
35593;DHT22;64447;52.140;5.602;2023-03-14T02:17:35;10.10;99.90
35593;DHT22;64447;52.140;5.602;2023-03-14T02:22:47;10.00;99.90
35593;DHT22;64447;52.140;5.602;2023-03-14T02:25:21;10.00;99.90
35593;DHT22;64447;52.140;5.602;2023-03-14T02:27:49;10.10;99.90
35593;DHT22;64447;52.140;5.602;2023-03-14T02:30:18;10.10;99.90
35593;DHT22;64447;52.140;5.602;2023-03-14T02:32:47;10.00;99.90
35593;DHT22;64447;52.140;5.602;2023-03-14T02:35:16;10.00;99.90
35593;DHT22;64447;52.140;5.602;2023-03-14T02:40:18;10.00;99.90
35593;DHT22;64447;52.140;5.602;2023-03-14T02:42:44;10.00;99.90
35593;DHT22;64447;52.140;5.602;2023-03-14T02:47:38;9.90;99.90
35593;DHT22;64447;52.140;5.602;2023-03-14T02:50:12;10.00;99.90
35593;DHT22;64447;52.140;5.602;2023-03-14T02:52:38;9.90;99.90
35593;DHT22;64447;52.140;5.602;2023-03-14T02:55:04;9.90;99.90
35593;DHT22;64447;52.140;5.602;2023-03-14T02:57:30;9.90;99.90
35593;DHT22;64447;52.140;5.602;2023-03-14T03:00:00;10.40;99.90
35593;DHT22;64447;52.140;5.602;2023-03-14T03:02:26;9.90;99.90
35593;DHT22;64447;52.140;5.602;2023-03-14T03:08:14;9.90;99.90
35593;DHT22;64447;52.140;5.602;2023-03-14T03:10:39;9.90;99.90
35593;DHT22;64447;52.140;5.602;2023-03-14T03:13:05;9.90;99.90
35593;DHT22;64447;52.140;5.602;2023-03-14T03:15:30;10.40;99.90
35593;DHT22;64447;52.140;5.602;2023-03-14T03:17:59;10.20;99.90
35593;DHT22;64447;52.140;5.602;2023-03-14T03:20:25;10.60;99.90
35593;DHT22;64447;52.140;5.602;2023-03-14T03:22:50;10.00;99.90
35593;DHT22;64447;52.140;5.602;2023-03-14T03:25:16;10.00;99.90
35593;DHT22;64447;52.140;5.602;2023-03-14T03:27:42;10.10;99.90
35593;DHT22;64447;52.140;5.602;2023-03-14T03:30:08;10.10;99.90
35593;DHT22;64447;52.140;5.602;2023-03-14T03:32:34;10.00;99.90
35593;DHT22;64447;52.140;5.602;2023-03-14T03:38:22;10.00;99.90
35593;DHT22;64447;52.140;5.602;2023-03-14T03:40:47;10.00;99.90
35593;DHT22;64447;52.140;5.602;2023-03-14T03:43:13;10.10;99.90
35593;DHT22;64447;52.140;5.602;2023-03-14T03:45:39;10.10;99.90
35593;DHT22;64447;52.140;5.602;2023-03-14T03:48:05;10.80;99.90
35593;DHT22;64447;52.140;5.602;2023-03-14T03:50:30;10.10;99.90
35593;DHT22;64447;52.140;5.602;2023-03-14T03:52:58;10.20;99.90
35593;DHT22;64447;52.140;5.602;2023-03-14T03:55:24;10.20;99.90
35593;DHT22;64447;52.140;5.602;2023-03-14T03:57:51;10.30;99.90
35593;DHT22;64447;52.140;5.602;2023-03-14T04:00:16;10.40;99.90
35593;DHT22;64447;52.140;5.602;2023-03-14T04:02:42;10.40;99.90
35593;DHT22;64447;52.140;5.602;2023-03-14T04:05:08;10.40;99.90
35593;DHT22;64447;52.140;5.602;2023-03-14T04:07:34;10.30;99.90
35593;DHT22;64447;52.140;5.602;2023-03-14T04:09:59;10.20;99.90
35593;DHT22;64447;52.140;5.602;2023-03-14T04:12:25;10.20;99.90
35593;DHT22;64447;52.140;5.602;2023-03-14T04:14:50;10.30;99.90
35593;DHT22;64447;52.140;5.602;2023-03-14T04:17:16;10.40;99.90
35593;DHT22;64447;52.140;5.602;2023-03-14T04:23:03;10.40;99.90
35593;DHT22;64447;52.140;5.602;2023-03-14T04:25:29;10.40;99.90
35593;DHT22;64447;52.140;5.602;2023-03-14T04:27:54;10.50;99.90
35593;DHT22;64447;52.140;5.602;2023-03-14T04:30:20;10.40;99.90
35593;DHT22;64447;52.140;5.602;2023-03-14T04:32:45;10.40;99.90
35593;DHT22;64447;52.140;5.602;2023-03-14T04:35:11;10.40;99.90
35593;DHT22;64447;52.140;5.602;2023-03-14T04:37:36;10.30;99.90
35593;DHT22;64447;52.140;5.602;2023-03-14T04:40:05;10.60;99.90
35593;DHT22;64447;52.140;5.602;2023-03-14T04:42:32;10.40;99.90
35593;DHT22;64447;52.140;5.602;2023-03-14T04:44:57;10.40;99.90
35593;DHT22;64447;52.140;5.602;2023-03-14T04:47:23;10.30;99.90
35593;DHT22;64447;52.140;5.602;2023-03-14T04:53:10;10.20;99.90
35593;DHT22;64447;52.140;5.602;2023-03-14T04:55:36;10.20;99.90
35593;DHT22;64447;52.140;5.602;2023-03-14T04:58:01;10.20;99.90
35593;DHT22;64447;52.140;5.602;2023-03-14T05:00:27;10.30;99.90
35593;DHT22;64447;52.140;5.602;2023-03-14T05:02:52;10.50;99.90
35593;DHT22;64447;52.140;5.602;2023-03-14T05:05:19;10.20;99.90
35593;DHT22;64447;52.140;5.602;2023-03-14T05:07:44;10.30;99.90
35593;DHT22;64447;52.140;5.602;2023-03-14T05:10:10;10.40;99.90
35593;DHT22;64447;52.140;5.602;2023-03-14T05:12:36;10.30;99.90
35593;DHT22;64447;52.140;5.602;2023-03-14T05:15:02;10.30;99.90
35593;DHT22;64447;52.140;5.602;2023-03-14T05:17:31;10.30;99.90
35593;DHT22;64447;52.140;5.602;2023-03-14T05:23:19;10.30;99.90
35593;DHT22;64447;52.140;5.602;2023-03-14T05:25:44;10.10;99.90
35593;DHT22;64447;52.140;5.602;2023-03-14T05:28:10;10.00;99.90
35593;DHT22;64447;52.140;5.602;2023-03-14T05:30:36;10.00;99.90
35593;DHT22;64447;52.140;5.602;2023-03-14T05:33:01;10.00;99.90
35593;DHT22;64447;52.140;5.602;2023-03-14T05:35:27;10.00;99.90
35593;DHT22;64447;52.140;5.602;2023-03-14T05:37:52;10.00;99.90
35593;DHT22;64447;52.140;5.602;2023-03-14T05:40:18;10.10;99.90
35593;DHT22;64447;52.140;5.602;2023-03-14T05:42:44;10.60;99.90
35593;DHT22;64447;52.140;5.602;2023-03-14T05:45:09;10.00;99.90
35593;DHT22;64447;52.140;5.602;2023-03-14T05:47:35;10.00;99.90
35593;DHT22;64447;52.140;5.602;2023-03-14T05:53:23;9.80;99.90
35593;DHT22;64447;52.140;5.602;2023-03-14T05:55:53;9.80;99.90
35593;DHT22;64447;52.140;5.602;2023-03-14T05:58:18;9.80;99.90
35593;DHT22;64447;52.140;5.602;2023-03-14T06:00:44;9.80;99.90
35593;DHT22;64447;52.140;5.602;2023-03-14T06:03:10;9.80;99.90
35593;DHT22;64447;52.140;5.602;2023-03-14T06:05:35;9.80;99.90
35593;DHT22;64447;52.140;5.602;2023-03-14T06:08:01;10.20;99.90
35593;DHT22;64447;52.140;5.602;2023-03-14T06:10:27;9.70;99.90
35593;DHT22;64447;52.140;5.602;2023-03-14T06:12:52;9.70;99.90
35593;DHT22;64447;52.140;5.602;2023-03-14T06:15:18;9.80;99.90
35593;DHT22;64447;52.140;5.602;2023-03-14T06:17:43;9.80;99.90
35593;DHT22;64447;52.140;5.602;2023-03-14T06:23:31;9.80;99.90
35593;DHT22;64447;52.140;5.602;2023-03-14T06:25:57;9.80;99.90
35593;DHT22;64447;52.140;5.602;2023-03-14T06:28:23;9.80;99.90
35593;DHT22;64447;52.140;5.602;2023-03-14T06:30:48;9.90;99.90
35593;DHT22;64447;52.140;5.602;2023-03-14T06:33:14;10.00;99.90
35593;DHT22;64447;52.140;5.602;2023-03-14T06:35:39;9.80;99.90
35593;DHT22;64447;52.140;5.602;2023-03-14T06:38:05;9.80;99.90
35593;DHT22;64447;52.140;5.602;2023-03-14T06:40:31;9.80;99.90
35593;DHT22;64447;52.140;5.602;2023-03-14T06:42:56;9.80;99.90
35593;DHT22;64447;52.140;5.602;2023-03-14T06:45:22;9.90;99.90
35593;DHT22;64447;52.140;5.602;2023-03-14T06:47:47;9.90;99.90
35593;DHT22;64447;52.140;5.602;2023-03-14T06:53:35;9.90;99.90
35593;DHT22;64447;52.140;5.602;2023-03-14T06:56:01;9.80;99.90
35593;DHT22;64447;52.140;5.602;2023-03-14T06:58:26;9.90;99.90
35593;DHT22;64447;52.140;5.602;2023-03-14T07:00:53;9.80;99.90
35593;DHT22;64447;52.140;5.602;2023-03-14T07:03:19;9.90;99.90
35593;DHT22;64447;52.140;5.602;2023-03-14T07:05:45;10.00;99.90
35593;DHT22;64447;52.140;5.602;2023-03-14T07:08:11;9.40;99.90
35593;DHT22;64447;52.140;5.602;2023-03-14T07:10:37;9.50;99.90
35593;DHT22;64447;52.140;5.602;2023-03-14T07:13:05;9.30;99.90
35593;DHT22;64447;52.140;5.602;2023-03-14T07:15:30;8.90;99.90
35593;DHT22;64447;52.140;5.602;2023-03-14T07:17:56;8.60;99.90
35593;DHT22;64447;52.140;5.602;2023-03-14T07:23:43;8.40;99.90
35593;DHT22;64447;52.140;5.602;2023-03-14T07:26:09;8.40;99.90
35593;DHT22;64447;52.140;5.602;2023-03-14T07:28:35;8.30;99.90
35593;DHT22;64447;52.140;5.602;2023-03-14T07:31:00;8.30;99.90
35593;DHT22;64447;52.140;5.602;2023-03-14T07:33:26;8.80;99.90
35593;DHT22;64447;52.140;5.602;2023-03-14T07:35:51;8.80;99.90
35593;DHT22;64447;52.140;5.602;2023-03-14T07:38:17;8.70;99.90
35593;DHT22;64447;52.140;5.602;2023-03-14T07:40:43;9.00;99.90
35593;DHT22;64447;52.140;5.602;2023-03-14T07:43:08;8.10;99.90
35593;DHT22;64447;52.140;5.602;2023-03-14T07:45:34;8.10;99.90
35593;DHT22;64447;52.140;5.602;2023-03-14T07:47:59;8.10;99.90
35593;DHT22;64447;52.140;5.602;2023-03-14T07:53:48;7.90;99.90
35593;DHT22;64447;52.140;5.602;2023-03-14T07:56:14;7.90;99.90
35593;DHT22;64447;52.140;5.602;2023-03-14T07:58:39;7.60;99.90
35593;DHT22;64447;52.140;5.602;2023-03-14T08:01:05;8.00;99.90
35593;DHT22;64447;52.140;5.602;2023-03-14T08:03:31;8.00;99.90
35593;DHT22;64447;52.140;5.602;2023-03-14T08:05:56;7.90;99.90
35593;DHT22;64447;52.140;5.602;2023-03-14T08:08:22;7.60;99.90
35593;DHT22;64447;52.140;5.602;2023-03-14T08:10:48;7.60;99.90
35593;DHT22;64447;52.140;5.602;2023-03-14T08:13:13;7.80;99.90
35593;DHT22;64447;52.140;5.602;2023-03-14T08:15:39;7.10;99.90
35593;DHT22;64447;52.140;5.602;2023-03-14T08:18:05;6.90;99.90
35593;DHT22;64447;52.140;5.602;2023-03-14T08:20:31;6.90;99.90
35593;DHT22;64447;52.140;5.602;2023-03-14T08:22:58;7.30;99.90
35593;DHT22;64447;52.140;5.602;2023-03-14T08:25:24;6.10;99.90
35593;DHT22;64447;52.140;5.602;2023-03-14T08:27:50;6.50;99.90
35593;DHT22;64447;52.140;5.602;2023-03-14T08:30:18;7.30;99.90
35593;DHT22;64447;52.140;5.602;2023-03-14T08:32:44;6.80;99.90
35593;DHT22;64447;52.140;5.602;2023-03-14T08:35:10;6.50;99.90
35593;DHT22;64447;52.140;5.602;2023-03-14T08:37:36;6.80;99.90
35593;DHT22;64447;52.140;5.602;2023-03-14T08:40:03;6.80;99.90
35593;DHT22;64447;52.140;5.602;2023-03-14T08:42:38;6.60;99.90
35593;DHT22;64447;52.140;5.602;2023-03-14T08:45:04;6.80;99.90
35593;DHT22;64447;52.140;5.602;2023-03-14T08:47:30;6.30;99.90
35593;DHT22;64447;52.140;5.602;2023-03-14T08:49:56;6.40;99.90
35593;DHT22;64447;52.140;5.602;2023-03-14T08:52:22;6.40;99.90
35593;DHT22;64447;52.140;5.602;2023-03-14T08:54:47;6.40;99.90
35593;DHT22;64447;52.140;5.602;2023-03-14T08:57:13;7.30;99.90
35593;DHT22;64447;52.140;5.602;2023-03-14T08:59:38;6.10;99.90
35593;DHT22;64447;52.140;5.602;2023-03-14T09:02:05;6.70;99.90
35593;DHT22;64447;52.140;5.602;2023-03-14T09:04:31;7.90;99.90
35593;DHT22;64447;52.140;5.602;2023-03-14T09:06:57;6.60;99.90
35593;DHT22;64447;52.140;5.602;2023-03-14T09:09:26;7.00;99.90
35593;DHT22;64447;52.140;5.602;2023-03-14T09:14:26;6.70;99.90
35593;DHT22;64447;52.140;5.602;2023-03-14T09:16:52;6.80;99.90
35593;DHT22;64447;52.140;5.602;2023-03-14T09:19:18;6.60;99.90
35593;DHT22;64447;52.140;5.602;2023-03-14T09:21:43;6.80;99.90
35593;DHT22;64447;52.140;5.602;2023-03-14T09:24:09;6.70;99.90
35593;DHT22;64447;52.140;5.602;2023-03-14T09:26:35;6.80;99.90
35593;DHT22;64447;52.140;5.602;2023-03-14T09:29:00;6.50;99.90
35593;DHT22;64447;52.140;5.602;2023-03-14T09:31:26;6.90;99.90
35593;DHT22;64447;52.140;5.602;2023-03-14T09:33:52;7.20;99.90
35593;DHT22;64447;52.140;5.602;2023-03-14T09:36:18;7.80;99.90
35593;DHT22;64447;52.140;5.602;2023-03-14T09:41:16;6.90;99.90
35593;DHT22;64447;52.140;5.602;2023-03-14T09:43:44;7.80;99.90
35593;DHT22;64447;52.140;5.602;2023-03-14T09:46:11;6.50;99.90
35593;DHT22;64447;52.140;5.602;2023-03-14T09:48:37;7.70;99.90
35593;DHT22;64447;52.140;5.602;2023-03-14T09:51:10;6.20;99.90
35593;DHT22;64447;52.140;5.602;2023-03-14T09:53:44;6.50;99.30
35593;DHT22;64447;52.140;5.602;2023-03-14T09:56:23;6.90;99.60
35593;DHT22;64447;52.140;5.602;2023-03-14T09:58:59;6.90;99.20
35593;DHT22;64447;52.140;5.602;2023-03-14T10:01:28;6.90;99.80
35593;DHT22;64447;52.140;5.602;2023-03-14T10:03:56;7.10;99.50
35593;DHT22;64447;52.140;5.602;2023-03-14T10:06:26;7.40;99.20
35593;DHT22;64447;52.140;5.602;2023-03-14T10:08:52;6.70;98.50
35593;DHT22;64447;52.140;5.602;2023-03-14T10:11:19;6.90;99.10
35593;DHT22;64447;52.140;5.602;2023-03-14T10:14:07;6.80;99.00
35593;DHT22;64447;52.140;5.602;2023-03-14T10:16:43;7.10;99.00
35593;DHT22;64447;52.140;5.602;2023-03-14T10:19:15;7.10;98.50
35593;DHT22;64447;52.140;5.602;2023-03-14T10:21:43;7.70;99.00
35593;DHT22;64447;52.140;5.602;2023-03-14T10:24:21;7.40;98.30
35593;DHT22;64447;52.140;5.602;2023-03-14T10:26:53;7.40;97.00
35593;DHT22;64447;52.140;5.602;2023-03-14T10:29:19;7.00;98.30
35593;DHT22;64447;52.140;5.602;2023-03-14T10:31:55;6.70;99.90
35593;DHT22;64447;52.140;5.602;2023-03-14T10:34:24;6.40;98.20
35593;DHT22;64447;52.140;5.602;2023-03-14T10:36:57;6.40;99.20
35593;DHT22;64447;52.140;5.602;2023-03-14T10:39:27;6.40;99.90
35593;DHT22;64447;52.140;5.602;2023-03-14T10:42:01;6.50;99.90
35593;DHT22;64447;52.140;5.602;2023-03-14T10:44:28;6.80;99.70
35593;DHT22;64447;52.140;5.602;2023-03-14T10:47:00;6.90;97.70
35593;DHT22;64447;52.140;5.602;2023-03-14T10:49:36;6.90;99.40
35593;DHT22;64447;52.140;5.602;2023-03-14T10:52:28;7.20;97.90
35593;DHT22;64447;52.140;5.602;2023-03-14T10:54:57;7.20;97.60
35593;DHT22;64447;52.140;5.602;2023-03-14T10:57:23;7.30;97.50
35593;DHT22;64447;52.140;5.602;2023-03-14T10:59:49;7.10;96.40
35593;DHT22;64447;52.140;5.602;2023-03-14T11:07:43;7.60;99.90
35593;DHT22;64447;52.140;5.602;2023-03-14T11:15:34;7.20;98.20
35593;DHT22;64447;52.140;5.602;2023-03-14T11:18:24;7.10;95.90
35593;DHT22;64447;52.140;5.602;2023-03-14T11:23:56;7.10;96.50
35593;DHT22;64447;52.140;5.602;2023-03-14T11:32:48;7.50;94.80
35593;DHT22;64447;52.140;5.602;2023-03-14T11:35:20;7.40;93.30
35593;DHT22;64447;52.140;5.602;2023-03-14T11:37:54;7.80;90.70
35593;DHT22;64447;52.140;5.602;2023-03-14T11:40:23;7.90;90.70
35593;DHT22;64447;52.140;5.602;2023-03-14T11:45:42;8.00;90.40
35593;DHT22;64447;52.140;5.602;2023-03-14T11:50:48;7.80;88.60
35593;DHT22;64447;52.140;5.602;2023-03-14T11:53:45;8.50;88.10
35593;DHT22;64447;52.140;5.602;2023-03-14T11:56:23;7.80;89.00
35593;DHT22;64447;52.140;5.602;2023-03-14T11:59:05;8.40;86.00
35593;DHT22;64447;52.140;5.602;2023-03-14T12:02:03;8.90;86.50
35593;DHT22;64447;52.140;5.602;2023-03-14T12:04:43;8.60;87.50
35593;DHT22;64447;52.140;5.602;2023-03-14T12:07:29;7.90;87.30
35593;DHT22;64447;52.140;5.602;2023-03-14T12:09:58;8.20;81.70
35593;DHT22;64447;52.140;5.602;2023-03-14T12:12:26;9.20;78.70
35593;DHT22;64447;52.140;5.602;2023-03-14T12:14:58;9.90;76.30
35593;DHT22;64447;52.140;5.602;2023-03-14T12:17:33;8.20;78.00
35593;DHT22;64447;52.140;5.602;2023-03-14T12:20:03;8.20;72.30
35593;DHT22;64447;52.140;5.602;2023-03-14T12:22:35;9.00;76.10
35593;DHT22;64447;52.140;5.602;2023-03-14T12:25:13;8.00;77.20
35593;DHT22;64447;52.140;5.602;2023-03-14T12:27:44;8.00;78.90
35593;DHT22;64447;52.140;5.602;2023-03-14T12:35:41;7.80;77.70
35593;DHT22;64447;52.140;5.602;2023-03-14T12:38:43;7.50;74.70
35593;DHT22;64447;52.140;5.602;2023-03-14T12:41:35;7.80;76.50
35593;DHT22;64447;52.140;5.602;2023-03-14T12:44:46;8.20;72.00
35593;DHT22;64447;52.140;5.602;2023-03-14T12:49:52;9.10;72.90
35593;DHT22;64447;52.140;5.602;2023-03-14T12:52:33;8.30;71.50
35593;DHT22;64447;52.140;5.602;2023-03-14T12:57:36;7.80;71.00
35593;DHT22;64447;52.140;5.602;2023-03-14T13:00:51;8.10;68.30
35593;DHT22;64447;52.140;5.602;2023-03-14T13:06:01;8.50;64.20
35593;DHT22;64447;52.140;5.602;2023-03-14T13:08:40;8.80;64.00
35593;DHT22;64447;52.140;5.602;2023-03-14T13:11:12;7.90;62.70
35593;DHT22;64447;52.140;5.602;2023-03-14T13:13:45;7.90;66.20
35593;DHT22;64447;52.140;5.602;2023-03-14T13:16:22;7.90;63.20
35593;DHT22;64447;52.140;5.602;2023-03-14T13:19:15;7.70;64.80
35593;DHT22;64447;52.140;5.602;2023-03-14T13:21:42;7.40;59.80
35593;DHT22;64447;52.140;5.602;2023-03-14T13:24:23;7.50;61.50
35593;DHT22;64447;52.140;5.602;2023-03-14T13:26:49;7.60;61.50
35593;DHT22;64447;52.140;5.602;2023-03-14T13:29:25;7.80;61.50
35593;DHT22;64447;52.140;5.602;2023-03-14T13:31:54;7.70;62.10
35593;DHT22;64447;52.140;5.602;2023-03-14T13:34:21;7.00;61.40
35593;DHT22;64447;52.140;5.602;2023-03-14T13:36:52;7.00;62.20
35593;DHT22;64447;52.140;5.602;2023-03-14T13:39:20;7.80;62.00
35593;DHT22;64447;52.140;5.602;2023-03-14T13:41:47;7.80;59.70
35593;DHT22;64447;52.140;5.602;2023-03-14T13:44:17;7.60;59.90
35593;DHT22;64447;52.140;5.602;2023-03-14T13:46:47;7.70;59.90
35593;DHT22;64447;52.140;5.602;2023-03-14T13:49:22;7.50;59.00
35593;DHT22;64447;52.140;5.602;2023-03-14T13:51:49;7.40;59.80
35593;DHT22;64447;52.140;5.602;2023-03-14T13:54:17;7.30;60.40
35593;DHT22;64447;52.140;5.602;2023-03-14T13:56:42;7.80;61.60
35593;DHT22;64447;52.140;5.602;2023-03-14T13:59:25;8.50;62.30
35593;DHT22;64447;52.140;5.602;2023-03-14T14:01:52;7.70;61.20
35593;DHT22;64447;52.140;5.602;2023-03-14T14:04:20;7.50;60.80
35593;DHT22;64447;52.140;5.602;2023-03-14T14:06:57;7.40;62.20
35593;DHT22;64447;52.140;5.602;2023-03-14T14:09:29;6.80;64.40
35593;DHT22;64447;52.140;5.602;2023-03-14T14:15:22;7.30;62.90
35593;DHT22;64447;52.140;5.602;2023-03-14T14:17:55;7.50;58.20
35593;DHT22;64447;52.140;5.602;2023-03-14T14:23:01;7.50;56.70
35593;DHT22;64447;52.140;5.602;2023-03-14T14:25:29;7.80;58.10
35593;DHT22;64447;52.140;5.602;2023-03-14T14:27:55;7.60;52.90
35593;DHT22;64447;52.140;5.602;2023-03-14T14:32:48;7.60;54.20
35593;DHT22;64447;52.140;5.602;2023-03-14T14:35:53;7.70;55.40
35593;DHT22;64447;52.140;5.602;2023-03-14T14:38:19;7.10;56.10
35593;DHT22;64447;52.140;5.602;2023-03-14T14:40:49;7.50;57.60
35593;DHT22;64447;52.140;5.602;2023-03-14T14:43:21;7.20;56.90
35593;DHT22;64447;52.140;5.602;2023-03-14T14:45:50;8.30;58.80
35593;DHT22;64447;52.140;5.602;2023-03-14T14:48:22;8.20;58.90
35593;DHT22;64447;52.140;5.602;2023-03-14T14:55:57;7.40;60.50
35593;DHT22;64447;52.140;5.602;2023-03-14T14:58:28;7.10;61.20
35593;DHT22;64447;52.140;5.602;2023-03-14T15:01:08;7.50;62.10
35593;DHT22;64447;52.140;5.602;2023-03-14T15:03:37;7.10;63.20
35593;DHT22;64447;52.140;5.602;2023-03-14T15:06:03;7.20;63.40
35593;DHT22;64447;52.140;5.602;2023-03-14T15:08:30;7.20;61.30
35593;DHT22;64447;52.140;5.602;2023-03-14T15:10:57;7.10;61.20
35593;DHT22;64447;52.140;5.602;2023-03-14T15:13:23;7.80;60.10
35593;DHT22;64447;52.140;5.602;2023-03-14T15:15:52;7.10;59.30
35593;DHT22;64447;52.140;5.602;2023-03-14T15:18:22;7.10;60.40
35593;DHT22;64447;52.140;5.602;2023-03-14T15:20:48;7.10;61.90
35593;DHT22;64447;52.140;5.602;2023-03-14T15:23:16;7.00;63.30
35593;DHT22;64447;52.140;5.602;2023-03-14T15:25:42;7.30;64.50
35593;DHT22;64447;52.140;5.602;2023-03-14T15:30:41;6.70;67.10
35593;DHT22;64447;52.140;5.602;2023-03-14T15:33:07;6.70;68.00
35593;DHT22;64447;52.140;5.602;2023-03-14T15:35:35;7.20;68.40
35593;DHT22;64447;52.140;5.602;2023-03-14T15:38:01;7.00;66.60
35593;DHT22;64447;52.140;5.602;2023-03-14T15:40:26;7.00;65.30
35593;DHT22;64447;52.140;5.602;2023-03-14T15:42:52;6.90;64.10
35593;DHT22;64447;52.140;5.602;2023-03-14T15:45:18;6.90;63.10
35593;DHT22;64447;52.140;5.602;2023-03-14T15:47:43;7.20;63.60
35593;DHT22;64447;52.140;5.602;2023-03-14T15:50:09;6.90;64.40
35593;DHT22;64447;52.140;5.602;2023-03-14T15:52:36;6.90;63.10
35593;DHT22;64447;52.140;5.602;2023-03-14T15:55:01;7.00;64.30
35593;DHT22;64447;52.140;5.602;2023-03-14T15:57:27;7.00;63.40
35593;DHT22;64447;52.140;5.602;2023-03-14T15:59:52;6.90;64.00
35593;DHT22;64447;52.140;5.602;2023-03-14T16:02:18;6.80;63.50
35593;DHT22;64447;52.140;5.602;2023-03-14T16:04:43;6.80;63.00
35593;DHT22;64447;52.140;5.602;2023-03-14T16:10:32;6.80;60.90
35593;DHT22;64447;52.140;5.602;2023-03-14T16:12:58;6.70;61.00
35593;DHT22;64447;52.140;5.602;2023-03-14T16:15:24;6.70;62.40
35593;DHT22;64447;52.140;5.602;2023-03-14T16:17:53;6.70;60.00
35593;DHT22;64447;52.140;5.602;2023-03-14T16:20:18;6.80;60.80
35593;DHT22;64447;52.140;5.602;2023-03-14T16:22:45;6.70;60.60
35593;DHT22;64447;52.140;5.602;2023-03-14T16:25:11;7.00;61.40
35593;DHT22;64447;52.140;5.602;2023-03-14T16:27:37;6.90;62.10
35593;DHT22;64447;52.140;5.602;2023-03-14T16:30:03;6.80;62.00
35593;DHT22;64447;52.140;5.602;2023-03-14T16:32:29;6.70;62.60
35593;DHT22;64447;52.140;5.602;2023-03-14T16:41:20;6.60;64.70
35593;DHT22;64447;52.140;5.602;2023-03-14T16:43:47;6.60;66.60
35593;DHT22;64447;52.140;5.602;2023-03-14T16:46:17;6.60;67.20
35593;DHT22;64447;52.140;5.602;2023-03-14T16:48:43;6.60;68.30
35593;DHT22;64447;52.140;5.602;2023-03-14T16:51:09;6.50;68.90
35593;DHT22;64447;52.140;5.602;2023-03-14T16:53:35;6.60;69.70
35593;DHT22;64447;52.140;5.602;2023-03-14T16:56:01;6.60;70.50
35593;DHT22;64447;52.140;5.602;2023-03-14T16:58:27;6.60;70.20
35593;DHT22;64447;52.140;5.602;2023-03-14T17:00:55;6.60;70.80
35593;DHT22;64447;52.140;5.602;2023-03-14T17:03:22;6.60;71.30
35593;DHT22;64447;52.140;5.602;2023-03-14T17:05:49;6.60;71.90
35593;DHT22;64447;52.140;5.602;2023-03-14T17:08:17;6.60;71.80
35593;DHT22;64447;52.140;5.602;2023-03-14T17:10:43;6.50;72.90
35593;DHT22;64447;52.140;5.602;2023-03-14T17:13:09;6.50;71.80
35593;DHT22;64447;52.140;5.602;2023-03-14T17:15:35;6.50;72.50
35593;DHT22;64447;52.140;5.602;2023-03-14T17:18:01;7.40;72.70
35593;DHT22;64447;52.140;5.602;2023-03-14T17:20:28;7.40;73.70
35593;DHT22;64447;52.140;5.602;2023-03-14T17:22:54;6.50;72.60
35593;DHT22;64447;52.140;5.602;2023-03-14T17:25:20;7.10;73.90
35593;DHT22;64447;52.140;5.602;2023-03-14T17:27:45;6.50;72.00
35593;DHT22;64447;52.140;5.602;2023-03-14T17:30:11;6.50;73.60
35593;DHT22;64447;52.140;5.602;2023-03-14T17:32:37;6.50;72.50
35593;DHT22;64447;52.140;5.602;2023-03-14T17:35:03;6.50;72.90
35593;DHT22;64447;52.140;5.602;2023-03-14T17:40:50;6.70;71.40
35593;DHT22;64447;52.140;5.602;2023-03-14T17:43:16;6.50;69.30